Time;durP1;ratioP1;P1;durP2;ratioP2;P2;SDS_P1;SDS_P2;PMS_P1;PMS_P2;Temp;Humidity;BMP_temperature;BMP_pressure;BME280_temperature;BME280_humidity;BME280_pressure;Samples;Min_cycle;Max_cycle;Signal;HPM_P1;HPM_P2
2023/12/20 00:02:31;;;;;;;5.55;1.60;;;;;;;6.39;100.00;100870.72;6277023;28;20040;-70
2023/12/20 00:05:33;;;;;;;9.27;1.55;;;;;;;6.39;100.00;100866.34;6256969;28;20049;-70
2023/12/20 00:08:34;;;;;;;5.30;2.35;;;;;;;6.28;100.00;100878.94;6252464;28;20053;-71
2023/12/20 00:11:37;;;;;;;3.10;1.27;;;;;;;6.27;100.00;100878.09;6252583;28;20060;-71
2023/12/20 00:14:38;;;;;;;4.95;1.02;;;;;;;6.26;100.00;100875.50;6252268;28;20053;-72
2023/12/20 00:17:40;;;;;;;4.38;1.40;;;;;;;6.14;100.00;100876.78;6264173;28;20464;-69
2023/12/20 00:20:41;;;;;;;2.50;1.27;;;;;;;6.13;100.00;100872.44;6282671;28;20045;-72
2023/12/20 00:23:42;;;;;;;3.70;1.48;;;;;;;6.07;100.00;100864.81;6269342;28;20045;-71
2023/12/20 00:26:45;;;;;;;3.90;0.82;;;;;;;6.06;100.00;100863.13;6275218;28;20048;-71
2023/12/20 00:29:49;;;;;;;4.43;1.15;;;;;;;6.03;100.00;100866.69;6269028;28;20045;-71
2023/12/20 00:32:50;;;;;;;11.77;1.15;;;;;;;6.08;100.00;100866.53;6268485;28;20064;-71
2023/12/20 00:35:52;;;;;;;9.85;1.42;;;;;;;6.11;100.00;100879.47;6276046;28;20348;-70
2023/12/20 00:38:53;;;;;;;10.30;1.17;;;;;;;6.02;100.00;100878.03;6276920;28;20056;-71
2023/12/20 00:41:56;;;;;;;11.02;1.83;;;;;;;6.01;100.00;100876.31;6276516;28;20060;-71
2023/12/20 00:44:57;;;;;;;3.95;1.38;;;;;;;6.08;100.00;100874.34;6276549;28;20057;-70
2023/12/20 00:47:59;;;;;;;8.18;1.10;;;;;;;6.02;100.00;100871.97;6268902;28;20041;-71
2023/12/20 00:51:00;;;;;;;4.32;1.23;;;;;;;6.08;100.00;100872.59;6276273;28;20049;-71
2023/12/20 00:54:02;;;;;;;6.57;1.20;;;;;;;5.99;100.00;100866.81;6275979;28;20222;-71
2023/12/20 00:57:05;;;;;;;1.85;0.95;;;;;;;5.99;100.00;100870.28;6276554;28;20057;-71
2023/12/20 01:00:09;;;;;;;11.57;1.35;;;;;;;6.00;100.00;100871.16;6276355;28;20115;-71
2023/12/20 01:03:10;;;;;;;11.25;1.27;;;;;;;6.01;100.00;100880.69;6276025;28;20368;-71
2023/12/20 01:06:12;;;;;;;9.68;1.73;;;;;;;5.99;100.00;100874.66;6275627;28;20049;-71
2023/12/20 01:09:14;;;;;;;7.70;0.95;;;;;;;6.00;100.00;100868.56;6276027;28;20053;-71
2023/12/20 01:12:17;;;;;;;5.38;1.23;;;;;;;5.91;100.00;100863.59;6276012;28;20593;-71
2023/12/20 01:15:18;;;;;;;10.70;1.65;;;;;;;5.79;100.00;100868.28;6275690;28;20093;-71
2023/12/20 01:18:19;;;;;;;7.13;1.23;;;;;;;5.76;100.00;100868.38;6279209;28;20044;-71
2023/12/20 01:21:21;;;;;;;7.43;1.40;;;;;;;5.75;100.00;100858.84;6264759;28;20045;-71
2023/12/20 01:24:22;;;;;;;7.45;1.00;;;;;;;5.80;100.00;100858.72;6262072;28;20060;-70
2023/12/20 01:27:25;;;;;;;7.53;1.23;;;;;;;5.77;100.00;100858.84;6283306;28;20468;-70
2023/12/20 01:30:26;;;;;;;3.95;1.17;;;;;;;5.74;100.00;100851.94;6267553;28;20045;-70
2023/12/20 01:33:27;;;;;;;11.15;1.55;;;;;;;5.67;100.00;100854.78;6275472;28;20057;-70
2023/12/20 01:36:29;;;;;;;8.73;1.58;;;;;;;5.66;100.00;100863.50;6274437;28;20361;-71
2023/12/20 01:39:30;;;;;;;7.28;1.55;;;;;;;5.67;100.00;100866.06;6276522;28;20099;-71
2023/12/20 01:42:33;;;;;;;4.88;0.90;;;;;;;5.58;100.00;100868.94;6271084;28;20056;-70
2023/12/20 01:45:34;;;;;;;8.65;2.60;;;;;;;5.62;100.00;100859.28;6275008;28;20052;-70
2023/12/20 01:48:36;;;;;;;14.38;2.28;;;;;;;5.62;100.00;100860.13;6275024;28;20045;-71
2023/12/20 01:51:37;;;;;;;7.20;2.30;;;;;;;5.64;100.00;100870.53;6275185;28;20456;-71
2023/12/20 01:54:41;;;;;;;7.57;1.05;;;;;;;5.68;100.00;100862.56;6274497;28;20053;-70
2023/12/20 01:57:44;;;;;;;5.15;1.25;;;;;;;5.80;100.00;100853.50;6275222;28;20061;-71
2023/12/20 02:00:45;;;;;;;2.55;1.02;;;;;;;5.80;100.00;100850.88;6275018;28;20041;-70
2023/12/20 02:03:47;;;;;;;11.45;1.58;;;;;;;5.75;100.00;100855.41;6274176;28;20049;-70
2023/12/20 02:06:52;;;;;;;3.30;1.40;;;;;;;5.74;100.00;100853.69;6276241;28;20056;-71
2023/12/20 02:09:54;;;;;;;10.35;1.40;;;;;;;5.65;100.00;100847.03;6268006;28;20045;-70
2023/12/20 02:12:56;;;;;;;10.93;1.92;;;;;;;5.67;100.00;100841.75;6274369;28;20358;-70
2023/12/20 02:15:58;;;;;;;7.72;1.30;;;;;;;5.58;100.00;100842.88;6273692;28;20048;-70
2023/12/20 02:19:00;;;;;;;9.25;1.02;;;;;;;5.58;100.00;100833.31;6274561;28;20052;-69
2023/12/20 02:22:10;;;;;;;8.60;1.15;;;;;;;5.53;100.00;100822.19;6274183;28;20053;-69
2023/12/20 02:25:11;;;;;;;4.95;1.77;;;;;;;5.51;100.00;100833.56;6274084;28;20045;-71
2023/12/20 02:28:12;;;;;;;3.75;1.00;;;;;;;5.48;100.00;100834.50;6274372;28;20063;-70
2023/12/20 02:31:14;;;;;;;9.07;1.52;;;;;;;5.48;100.00;100831.91;6274212;28;20052;-70
2023/12/20 02:34:15;;;;;;;3.00;1.10;;;;;;;5.44;100.00;100839.84;6273182;28;20059;-71
2023/12/20 02:37:18;;;;;;;3.50;0.98;;;;;;;5.46;100.00;100844.13;6274371;28;20673;-70
2023/12/20 02:40:19;;;;;;;2.83;1.00;;;;;;;5.46;100.00;100832.88;6274040;28;20056;-71
2023/12/20 02:43:20;;;;;;;3.80;1.17;;;;;;;5.35;100.00;100834.03;6273921;28;20057;-71
2023/12/20 02:46:22;;;;;;;3.92;1.17;;;;;;;5.42;100.00;100826.03;6273877;28;20056;-71
2023/12/20 02:49:23;;;;;;;9.30;1.38;;;;;;;5.42;100.00;100815.63;6273815;28;20441;-71
2023/12/20 02:52:26;;;;;;;3.50;1.30;;;;;;;5.32;100.00;100822.88;6273986;28;20060;-71
2023/12/20 02:55:28;;;;;;;6.88;1.00;;;;;;;5.28;100.00;100834.28;6273455;28;20060;-71
2023/12/20 02:58:29;;;;;;;7.65;1.30;;;;;;;5.25;100.00;100824.78;6274166;28;20052;-71
2023/12/20 03:01:30;;;;;;;9.13;1.40;;;;;;;5.18;100.00;100812.84;6273769;28;20060;-70
2023/12/20 03:04:32;;;;;;;2.20;1.25;;;;;;;5.19;100.00;100813.72;6273593;28;20452;-71
2023/12/20 03:07:34;;;;;;;3.33;1.35;;;;;;;5.18;100.00;100818.06;6273471;28;20053;-71
2023/12/20 03:10:36;;;;;;;8.48;1.08;;;;;;;5.27;100.00;100822.16;6274105;28;20052;-71
2023/12/20 03:13:37;;;;;;;6.85;1.63;;;;;;;5.20;100.00;100811.03;6273787;28;20049;-71
2023/12/20 03:16:38;;;;;;;3.08;1.35;;;;;;;5.24;100.00;100794.44;6273313;28;20061;-70
2023/12/20 03:19:40;;;;;;;6.90;1.63;;;;;;;5.18;100.00;100794.63;6274111;28;20052;-71
2023/12/20 03:22:42;;;;;;;5.18;1.70;;;;;;;5.18;100.00;100792.03;6264773;28;20055;-70
2023/12/20 03:25:44;;;;;;;5.95;1.77;;;;;;;5.16;100.00;100795.56;6259812;28;20045;-71
2023/12/20 03:28:45;;;;;;;3.90;1.75;;;;;;;5.21;100.00;100791.91;6266511;28;20433;-70
2023/12/20 03:31:46;;;;;;;8.25;1.77;;;;;;;5.19;100.00;100780.69;6266319;28;20051;-70
2023/12/20 03:34:48;;;;;;;5.35;1.63;;;;;;;5.22;100.00;100770.19;6274332;28;20049;-70
2023/12/20 03:37:50;;;;;;;9.52;1.27;;;;;;;5.31;100.00;100772.50;6274467;28;20083;-71
2023/12/20 03:40:52;;;;;;;3.15;1.30;;;;;;;5.15;100.00;100781.69;6272130;28;20067;-70
2023/12/20 03:43:54;;;;;;;10.27;1.70;;;;;;;5.23;100.00;100776.25;6273374;28;20088;-70
2023/12/20 03:46:55;;;;;;;11.45;1.90;;;;;;;5.29;100.00;100765.63;6276816;28;20041;-70
2023/12/20 03:49:56;;;;;;;8.70;2.50;;;;;;;5.24;100.00;100772.72;6276238;28;20041;-71
2023/12/20 03:52:59;;;;;;;5.30;1.65;;;;;;;5.26;100.00;100776.13;6276541;28;20437;-71
2023/12/20 03:56:00;;;;;;;9.50;1.95;;;;;;;5.33;100.00;100786.31;6276689;28;20045;-71
2023/12/20 03:59:01;;;;;;;7.55;1.33;;;;;;;5.28;100.00;100782.16;6274882;28;20049;-72
2023/12/20 04:02:03;;;;;;;4.03;1.50;;;;;;;5.37;100.00;100775.81;6275654;28;20055;-70
2023/12/20 04:05:05;;;;;;;4.63;1.70;;;;;;;5.34;100.00;100767.19;6290017;28;20056;-71
2023/12/20 04:08:08;;;;;;;4.30;1.70;;;;;;;5.41;100.00;100767.00;6276884;28;20049;-71
2023/12/20 04:11:10;;;;;;;5.22;2.00;;;;;;;5.42;100.00;100759.13;6270447;28;20049;-70
2023/12/20 04:14:11;;;;;;;7.78;1.77;;;;;;;5.42;100.00;100759.13;6277539;28;20045;-70
2023/12/20 04:17:12;;;;;;;7.00;1.70;;;;;;;5.41;100.00;100748.75;6270617;28;20396;-71
2023/12/20 04:20:14;;;;;;;11.02;2.60;;;;;;;5.39;100.00;100751.41;6278078;28;20052;-70
2023/12/20 04:23:16;;;;;;;9.52;1.90;;;;;;;5.49;100.00;100737.16;6277073;28;20461;-70
2023/12/20 04:26:18;;;;;;;16.17;2.15;;;;;;;5.50;100.00;100738.88;6271051;28;20269;-70
2023/12/20 04:29:19;;;;;;;10.13;1.85;;;;;;;5.57;100.00;100742.97;6277940;28;20052;-71
2023/12/20 04:32:20;;;;;;;11.02;2.97;;;;;;;5.47;100.00;100744.19;6280051;28;20045;-71
2023/12/20 04:35:22;;;;;;;11.32;1.98;;;;;;;5.57;100.00;100735.16;6276548;28;20050;-70
2023/12/20 04:38:24;;;;;;;6.20;1.58;;;;;;;5.57;100.00;100748.19;6278758;28;20437;-70
2023/12/20 04:41:27;;;;;;;12.60;1.95;;;;;;;5.68;100.00;100753.06;6277772;28;20045;-70
2023/12/20 04:44:28;;;;;;;5.45;1.60;;;;;;;5.59;100.00;100749.00;6277831;28;20146;-71
2023/12/20 04:47:30;;;;;;;14.63;2.50;;;;;;;5.56;100.00;100737.84;6277363;28;20049;-70
2023/12/20 04:50:31;;;;;;;9.68;2.25;;;;;;;5.59;100.00;100738.59;6278234;28;20049;-71
2023/12/20 04:53:34;;;;;;;10.02;1.85;;;;;;;5.63;100.00;100733.25;6277756;28;20056;-71
2023/12/20 04:56:35;;;;;;;5.32;1.80;;;;;;;5.59;100.00;100730.78;6268007;28;20055;-71
2023/12/20 04:59:36;;;;;;;3.92;1.83;;;;;;;5.63;100.00;100733.25;6277703;28;20052;-70
2023/12/20 05:02:38;;;;;;;15.80;2.08;;;;;;;5.62;100.00;100726.34;6277817;28;20365;-71
2023/12/20 05:05:39;;;;;;;10.68;2.35;;;;;;;5.59;100.00;100730.78;6271640;28;20334;-71
2023/12/20 05:08:42;;;;;;;12.10;2.30;;;;;;;5.49;100.00;100724.13;6289082;28;20052;-71
2023/12/20 05:11:43;;;;;;;8.75;1.92;;;;;;;5.54;100.00;100727.47;6274924;28;20044;-71
2023/12/20 05:14:45;;;;;;;15.13;2.30;;;;;;;5.60;100.00;100729.84;6277019;28;20122;-70
2023/12/20 05:17:46;;;;;;;10.13;2.60;;;;;;;5.62;100.00;100732.41;6276941;28;20053;-72
2023/12/20 05:20:47;;;;;;;9.10;2.00;;;;;;;5.56;100.00;100723.03;6278255;28;20045;-71
2023/12/20 05:23:50;;;;;;;14.85;2.08;;;;;;;5.59;100.00;100717.72;6269345;28;20056;-71
2023/12/20 05:26:52;;;;;;;10.02;2.72;;;;;;;5.69;100.00;100733.91;6274277;28;20041;-72
2023/12/20 05:29:57;;;;;;;8.35;1.67;;;;;;;5.69;100.00;100728.69;6267949;28;20045;-70
2023/12/20 05:32:58;;;;;;;10.43;1.73;;;;;;;5.66;100.00;100734.00;6275897;28;20056;-71
2023/12/20 05:35:59;;;;;;;11.32;2.00;;;;;;;5.69;100.00;100720.88;6269080;28;20049;-71
2023/12/20 05:39:03;;;;;;;12.25;2.47;;;;;;;5.70;100.00;100737.38;6252761;28;20050;-70
2023/12/20 05:42:05;;;;;;;10.63;2.38;;;;;;;5.69;100.00;100736.53;6251326;28;20430;-70
2023/12/20 05:45:07;;;;;;;8.10;2.05;;;;;;;5.74;100.00;100747.66;6250248;28;20053;-70
2023/12/20 05:48:08;;;;;;;15.55;2.40;;;;;;;5.73;100.00;100735.53;6251586;28;20522;-71
2023/12/20 05:51:12;;;;;;;9.48;2.95;;;;;;;5.67;100.00;100735.72;6258338;28;20060;-73
2023/12/20 05:54:15;;;;;;;12.27;1.70;;;;;;;5.70;100.00;100719.13;6259243;28;20042;-71
2023/12/20 05:57:16;;;;;;;8.68;2.17;;;;;;;5.77;100.00;100724.09;6251539;28;20352;-71
2023/12/20 06:00:18;;;;;;;14.82;2.10;;;;;;;5.81;100.00;100725.69;6251225;28;20046;-72
2023/12/20 06:03:19;;;;;;;11.60;1.88;;;;;;;5.81;100.00;100723.09;6264979;28;20057;-70
2023/12/20 06:06:21;;;;;;;7.20;2.10;;;;;;;5.79;100.00;100722.25;6268065;28;20053;-70
2023/12/20 06:09:23;;;;;;;6.95;1.77;;;;;;;5.83;100.00;100736.91;6276179;28;20056;-71
2023/12/20 06:12:26;;;;;;;8.48;2.00;;;;;;;5.82;100.00;100722.16;6275188;28;20045;-71
2023/12/20 06:15:28;;;;;;;11.45;1.50;;;;;;;5.85;100.00;100729.88;6275025;28;20060;-71
2023/12/20 06:18:29;;;;;;;12.05;2.03;;;;;;;5.95;100.00;100732.19;6262939;28;20053;-71
2023/12/20 06:21:30;;;;;;;7.95;1.92;;;;;;;5.97;100.00;100727.78;6261375;28;20042;-71
2023/12/20 06:24:34;;;;;;;8.13;1.55;;;;;;;5.82;100.00;100716.09;6275136;28;20049;-71
2023/12/20 06:27:35;;;;;;;10.05;2.20;;;;;;;5.92;100.00;100709.69;6275740;28;20045;-71
2023/12/20 06:30:36;;;;;;;12.75;2.35;;;;;;;5.87;100.00;100711.59;6275721;28;20128;-71
2023/12/20 06:33:40;;;;;;;14.38;2.25;;;;;;;5.87;100.00;100711.59;6274816;28;20052;-70
2023/12/20 06:36:41;;;;;;;14.07;2.22;;;;;;;5.87;100.00;100710.72;6275194;28;20060;-71
2023/12/20 06:39:44;;;;;;;9.05;1.98;;;;;;;5.83;100.00;100700.41;6259445;28;20057;-71
2023/12/20 06:42:46;;;;;;;9.38;2.53;;;;;;;5.79;100.00;100695.34;6271956;28;20041;-70
2023/12/20 06:45:47;;;;;;;9.10;1.80;;;;;;;5.82;100.00;100693.50;6266268;28;20400;-71
2023/12/20 06:48:49;;;;;;;23.45;2.65;;;;;;;5.85;100.00;100701.19;6270039;28;20049;-71
2023/12/20 06:51:50;;;;;;;12.70;2.33;;;;;;;5.80;100.00;100697.88;6271727;28;20048;-70
2023/12/20 06:54:53;;;;;;;13.45;2.10;;;;;;;5.82;100.00;100677.00;6265894;28;20045;-70
2023/12/20 06:57:55;;;;;;;6.32;2.22;;;;;;;5.85;100.00;100685.53;6274927;28;20049;-71
2023/12/20 07:00:56;;;;;;;10.63;2.17;;;;;;;5.90;100.00;100669.72;6275078;28;20071;-71
2023/12/20 07:03:57;;;;;;;21.80;1.60;;;;;;;5.93;100.00;100680.09;6273765;28;20056;-71
2023/12/20 07:07:00;;;;;;;17.73;2.30;;;;;;;5.89;100.00;100677.63;6274348;28;20051;-70
2023/12/20 07:10:02;;;;;;;7.93;2.53;;;;;;;5.95;100.00;100674.81;6266435;28;20057;-72
2023/12/20 07:13:05;;;;;;;21.15;2.78;;;;;;;5.87;100.00;100684.66;6274731;28;20052;-72
2023/12/20 07:16:06;;;;;;;6.15;2.17;;;;;;;5.87;100.00;100666.41;6273621;28;20153;-72
2023/12/20 07:19:07;;;;;;;4.13;1.55;;;;;;;5.84;100.00;100664.75;6268519;28;20048;-69
2023/12/20 07:22:09;;;;;;;16.40;2.47;;;;;;;5.92;100.00;100661.91;6272696;28;20044;-70
2023/12/20 07:25:12;;;;;;;12.55;1.83;;;;;;;5.85;100.00;100658.63;6271463;28;20056;-70
2023/12/20 07:28:14;;;;;;;6.30;1.88;;;;;;;5.90;100.00;100671.50;6279746;28;20053;-70
2023/12/20 07:31:16;;;;;;;8.77;1.88;;;;;;;5.97;100.00;100654.75;6281613;28;20049;-70
2023/12/20 07:34:17;;;;;;;10.45;2.00;;;;;;;5.89;100.00;100665.44;6270926;28;20045;-71
2023/12/20 07:37:19;;;;;;;20.27;2.05;;;;;;;5.89;100.00;100644.56;6279527;28;20064;-70
2023/12/20 07:40:23;;;;;;;9.15;1.75;;;;;;;5.98;100.00;100653.84;6279072;28;20057;-70
2023/12/20 07:43:24;;;;;;;9.50;1.83;;;;;;;5.95;100.00;100656.56;6281634;28;20045;-70
2023/12/20 07:46:26;;;;;;;8.30;2.05;;;;;;;5.89;100.00;100657.59;6270382;28;20354;-70
2023/12/20 07:49:27;;;;;;;13.70;1.92;;;;;;;5.95;100.00;100660.03;6279307;28;20056;-70
2023/12/20 07:52:28;;;;;;;16.85;2.08;;;;;;;5.98;100.00;100659.91;6278968;28;20049;-70
2023/12/20 07:55:31;;;;;;;9.30;1.75;;;;;;;5.99;100.00;100659.00;6270572;28;20353;-70
2023/12/20 07:58:33;;;;;;;8.70;2.00;;;;;;;5.93;100.00;100655.78;6279061;28;20183;-69
2023/12/20 08:01:34;;;;;;;13.43;2.30;;;;;;;5.94;100.00;100650.50;6278721;28;20067;-70
2023/12/20 08:04:36;;;;;;;10.25;1.95;;;;;;;5.96;100.00;100637.41;6275483;28;20045;-70
2023/12/20 08:07:37;;;;;;;9.13;2.70;;;;;;;5.95;100.00;100654.84;6275947;28;20048;-70
2023/12/20 08:10:40;;;;;;;14.35;2.05;;;;;;;5.94;100.00;100639.22;6270432;28;20061;-70
2023/12/20 08:13:41;;;;;;;10.77;1.42;;;;;;;5.97;100.00;100641.72;6272393;28;20049;-70
2023/12/20 08:16:42;;;;;;;11.02;1.60;;;;;;;5.97;100.00;100637.34;6270917;28;20440;-70
2023/12/20 08:19:44;;;;;;;17.75;2.13;;;;;;;5.99;100.00;100642.50;6273557;28;20442;-69
2023/12/20 08:22:45;;;;;;;14.88;2.20;;;;;;;5.98;100.00;100630.38;6269845;28;20048;-70
2023/12/20 08:25:49;;;;;;;12.50;2.25;;;;;;;6.03;100.00;100637.13;6275263;28;20041;-71
2023/12/20 08:28:50;;;;;;;9.35;2.53;;;;;;;6.00;100.00;100631.19;6269108;28;20395;-69
2023/12/20 08:31:53;;;;;;;12.77;2.33;;;;;;;6.08;100.00;100629.97;6276369;28;20052;-75
2023/12/20 08:34:55;;;;;;;15.52;2.75;;;;;;;6.10;100.00;100636.00;6269739;28;20405;-75
2023/12/20 08:37:57;;;;;;;10.57;2.78;;;;;;;6.07;100.00;100612.63;6276997;28;20349;-69
2023/12/20 08:41:01;;;;;;;10.23;2.10;;;;;;;6.08;100.00;100618.69;6264478;28;20052;-71
2023/12/20 08:44:02;;;;;;;12.43;2.17;;;;;;;6.11;100.00;100615.97;6270915;28;20131;-70
2023/12/20 08:47:04;;;;;;;11.07;2.20;;;;;;;6.03;100.00;100608.44;6269332;28;20055;-70
2023/12/20 08:50:06;;;;;;;12.85;1.85;;;;;;;6.10;100.00;100604.69;6269205;28;20048;-70
2023/12/20 08:53:08;;;;;;;12.88;2.38;;;;;;;6.13;100.00;100603.72;6277472;28;20048;-70
2023/12/20 08:56:10;;;;;;;10.77;2.40;;;;;;;6.06;100.00;100597.88;6277075;28;20071;-70
2023/12/20 08:59:12;;;;;;;15.65;3.08;;;;;;;6.12;100.00;100599.41;6277480;28;20048;-70
2023/12/20 09:02:13;;;;;;;9.80;1.95;;;;;;;6.13;100.00;100602.88;6269026;28;20421;-70
2023/12/20 09:05:15;;;;;;;13.07;3.25;;;;;;;6.23;100.00;100589.44;6276786;28;20045;-70
2023/12/20 09:08:16;;;;;;;11.40;2.13;;;;;;;6.22;100.00;100590.34;6276837;28;20490;-70
2023/12/20 09:11:19;;;;;;;8.77;2.30;;;;;;;6.35;100.00;100582.88;6259639;28;20045;-71
2023/12/20 09:14:20;;;;;;;9.55;2.10;;;;;;;6.25;100.00;100590.22;6262382;28;20191;-71
2023/12/20 09:17:22;;;;;;;10.48;2.03;;;;;;;6.33;100.00;100575.13;6264808;28;20056;-69
2023/12/20 09:20:24;;;;;;;23.23;2.42;;;;;;;6.27;100.00;100584.97;6259334;28;20056;-68
2023/12/20 09:23:25;;;;;;;15.35;2.55;;;;;;;6.27;100.00;100584.97;6251998;28;20508;-69
2023/12/20 09:26:28;;;;;;;22.25;2.58;;;;;;;6.14;100.00;100574.13;6251667;28;20056;-71
2023/12/20 09:29:30;;;;;;;9.18;2.35;;;;;;;6.20;100.00;100565.22;6252267;28;20060;-69
2023/12/20 09:32:31;;;;;;;13.30;2.13;;;;;;;6.22;100.00;100576.44;6270820;28;20048;-70
2023/12/20 09:35:33;;;;;;;16.05;1.95;;;;;;;6.27;100.00;100585.81;6267895;28;20357;-70
2023/12/20 09:38:34;;;;;;;20.95;1.98;;;;;;;6.39;100.00;100586.22;6276091;28;20068;-69
2023/12/20 09:41:41;;;;;;;6.40;1.70;;;;;;;6.39;100.00;100560.13;6269701;28;20046;-68
2023/12/20 09:44:44;;;;;;;15.70;1.98;;;;;;;6.34;100.00;100558.53;6264957;28;20068;-68
2023/12/20 09:47:45;;;;;;;14.48;1.90;;;;;;;6.34;100.00;100576.81;6272187;28;20107;-68
2023/12/20 09:50:47;;;;;;;6.55;1.90;;;;;;;6.32;100.00;100562.16;6268322;28;20128;-68
2023/12/20 09:53:49;;;;;;;17.55;1.90;;;;;;;6.36;100.00;100555.91;6250718;28;20050;-70
2023/12/20 09:56:52;;;;;;;6.90;1.45;;;;;;;6.38;100.00;100561.06;6257306;28;20048;-69
2023/12/20 09:59:53;;;;;;;10.13;1.52;;;;;;;6.35;100.00;100562.00;6267809;28;20053;-70
2023/12/20 10:02:58;;;;;;;20.40;2.55;;;;;;;6.45;100.00;100565.97;6275522;28;20052;-69
2023/12/20 10:06:01;;;;;;;12.90;1.60;;;;;;;6.46;100.00;100562.44;6271276;28;20044;-69
2023/12/20 10:09:02;;;;;;;9.95;1.65;;;;;;;6.38;100.00;100561.91;6271248;28;20075;-68
2023/12/20 10:12:07;;;;;;;9.20;2.15;;;;;;;6.46;100.00;100561.59;6277012;28;20060;-70
2023/12/20 10:15:10;;;;;;;10.90;2.33;;;;;;;6.41;100.00;100561.78;6275167;28;20139;-70
2023/12/20 10:18:13;;;;;;;10.30;1.58;;;;;;;6.46;100.00;100553.78;6273939;28;20423;-68
2023/12/20 10:21:15;;;;;;;8.73;2.03;;;;;;;6.48;100.00;100554.56;6267228;28;20052;-70
2023/12/20 10:24:18;;;;;;;5.45;2.20;;;;;;;6.48;100.00;100534.50;6275085;28;20106;-70
2023/12/20 10:27:21;;;;;;;6.88;1.65;;;;;;;6.48;100.00;100544.97;6274610;28;20061;-70
2023/12/20 10:30:22;;;;;;;13.82;3.75;;;;;;;6.43;100.00;100527.78;6257637;28;20057;-70
2023/12/20 10:33:25;;;;;;;11.88;2.15;;;;;;;6.44;100.00;100535.53;6266743;28;20053;-68
2023/12/20 10:36:28;;;;;;;6.45;1.88;;;;;;;6.50;100.00;100531.88;6274816;28;20083;-76
2023/12/20 10:39:30;;;;;;;12.40;1.67;;;;;;;6.45;100.00;100524.22;6275208;28;20048;-71
2023/12/20 10:42:36;;;;;;;6.95;2.05;;;;;;;6.58;100.00;100511.50;6251889;28;20131;-72
2023/12/20 10:45:37;;;;;;;13.30;1.60;;;;;;;6.60;100.00;100518.38;6273250;28;20057;-70
2023/12/20 10:48:40;;;;;;;9.57;2.22;;;;;;;6.65;100.00;100517.34;6269827;28;20105;-71
2023/12/20 10:51:42;;;;;;;4.45;1.35;;;;;;;6.63;100.00;100512.16;6266325;28;20045;-70
2023/12/20 10:54:43;;;;;;;13.55;1.50;;;;;;;6.59;100.00;100528.88;6269806;28;20052;-71
2023/12/20 10:57:50;;;;;;;10.30;1.40;;;;;;;6.57;100.00;100522.84;6266797;28;20049;-71
2023/12/20 11:00:59;;;;;;;5.07;0.73;;;;;;;6.29;100.00;100523.97;6266670;28;20207;-70
2023/12/20 11:04:01;;;;;;;3.60;1.10;;;;;;;6.17;100.00;100557.50;6272089;28;20049;-70
2023/12/20 11:07:16;;;;;;;4.85;1.20;;;;;;;6.09;100.00;100565.63;6274833;28;20057;-72
2023/12/20 11:10:22;;;;;;;4.03;0.95;;;;;;;6.07;100.00;100552.63;6266541;28;20078;-71
2023/12/20 11:13:32;;;;;;;4.82;0.70;;;;;;;6.10;100.00;100564.72;6273074;28;20345;-70
2023/12/20 11:16:33;;;;;;;3.95;0.50;;;;;;;6.18;100.00;100570.50;6265978;28;20062;-72
2023/12/20 11:19:37;;;;;;;4.68;1.30;;;;;;;6.32;100.00;100580.41;6275055;28;20056;-72
2023/12/20 11:22:41;;;;;;;5.38;1.02;;;;;;;6.31;100.00;100570.84;6274424;28;20052;-70
2023/12/20 11:25:53;;;;;;;3.80;1.05;;;;;;;6.31;100.00;100561.31;6271003;28;20053;-71
2023/12/20 11:29:22;;;;;;;3.30;0.77;;;;;;;6.34;100.00;100562.91;6270744;28;20049;-70
2023/12/20 11:32:30;;;;;;;3.38;0.70;;;;;;;6.31;100.00;100563.03;6266735;28;20357;-70
2023/12/20 11:35:31;;;;;;;5.85;0.68;;;;;;;6.32;100.00;100565.59;6265822;28;20349;-72
2023/12/20 11:38:37;;;;;;;3.28;0.60;;;;;;;6.44;100.00;100571.25;6266664;28;20183;-71
2023/12/20 11:41:38;;;;;;;1.73;0.80;;;;;;;6.48;100.00;100563.22;6269219;28;20049;-70
2023/12/20 11:44:44;;;;;;;2.50;0.52;;;;;;;6.53;100.00;100561.28;6268915;28;20057;-70
2023/12/20 11:47:49;;;;;;;1.60;0.30;;;;;;;6.62;100.00;100567.91;6265643;28;20139;-70
2023/12/20 11:50:50;;;;;;;2.63;0.95;;;;;;;6.36;100.00;100571.56;6270661;28;20124;-70
2023/12/20 11:53:53;;;;;;;0.70;0.43;;;;;;;6.27;100.00;100561.47;6249059;28;20050;-71
2023/12/20 11:56:55;;;;;;;1.30;0.35;;;;;;;6.28;100.00;100565.78;6250691;28;20468;-70
2023/12/20 11:59:58;;;;;;;1.42;0.43;;;;;;;6.19;100.00;100564.38;6266083;28;20045;-71
2023/12/20 12:02:59;;;;;;;4.55;0.40;;;;;;;6.10;100.00;100593.41;6265481;28;20044;-71
2023/12/20 12:06:02;;;;;;;0.65;0.30;;;;;;;6.10;100.00;100560.34;6272632;28;20458;-70
2023/12/20 12:09:04;;;;;;;3.20;0.50;;;;;;;6.18;100.00;100559.22;6272327;28;20446;-70
2023/12/20 12:12:07;;;;;;;5.18;0.43;;;;;;;6.14;100.00;100553.25;6270016;28;20344;-70
2023/12/20 12:15:10;;;;;;;1.98;0.60;;;;;;;6.18;100.00;100559.22;6273285;28;20553;-70
2023/12/20 12:18:11;;;;;;;1.38;0.40;;;;;;;6.16;100.00;100558.41;6278312;28;20326;-71
2023/12/20 12:21:20;;;;;;;1.67;0.38;;;;;;;6.05;100.00;100564.88;6269741;28;20049;-70
2023/12/20 12:24:22;;;;;;;4.22;0.70;;;;;;;5.97;100.00;100568.69;6253276;28;20259;-71
2023/12/20 12:27:24;;;;;;;6.18;0.77;;;;;;;5.86;100.00;100582.09;6263768;28;20089;-72
2023/12/20 12:30:27;;;;;;;4.32;0.68;;;;;;;5.77;100.00;100588.50;6269624;28;20088;-70
2023/12/20 12:33:29;;;;;;;4.13;0.40;;;;;;;5.80;100.00;100567.50;6270927;28;20048;-71
2023/12/20 12:36:30;;;;;;;0.75;0.40;;;;;;;5.90;100.00;100564.56;6275706;28;20452;-71
2023/12/20 12:39:32;;;;;;;0.77;0.40;;;;;;;5.83;100.00;100562.19;6271510;28;20049;-70
2023/12/20 12:42:33;;;;;;;4.78;0.68;;;;;;;5.75;100.00;100560.75;6277942;28;20060;-70
2023/12/20 12:45:36;;;;;;;0.90;0.22;;;;;;;5.73;100.00;100565.19;6280170;28;20056;-70
2023/12/20 12:48:38;;;;;;;3.78;0.50;;;;;;;5.80;100.00;100556.22;6280264;28;20053;-70
2023/12/20 12:51:39;;;;;;;5.68;0.35;;;;;;;5.88;100.00;100548.13;6263783;28;20581;-69
2023/12/20 12:54:41;;;;;;;2.08;0.35;;;;;;;5.85;100.00;100555.16;6277275;28;20052;-70
2023/12/20 12:57:43;;;;;;;6.00;0.60;;;;;;;5.90;100.00;100552.38;6272596;28;20488;-69
2023/12/20 13:00:46;;;;;;;3.58;0.55;;;;;;;5.79;100.00;100550.16;6277584;28;20044;-70
2023/12/20 13:03:48;;;;;;;3.70;0.57;;;;;;;5.91;100.00;100555.84;6280267;28;20041;-71
2023/12/20 13:06:49;;;;;;;3.30;0.55;;;;;;;5.82;100.00;100557.91;6268941;28;20049;-71
2023/12/20 13:09:51;;;;;;;4.20;0.75;;;;;;;5.80;100.00;100557.06;6277568;28;20179;-70
2023/12/20 13:12:53;;;;;;;2.72;0.68;;;;;;;5.80;100.00;100551.88;6281436;28;20356;-70
2023/12/20 13:15:56;;;;;;;6.88;0.88;;;;;;;5.70;100.00;100558.31;6259680;28;20054;-70
2023/12/20 13:18:59;;;;;;;3.38;0.45;;;;;;;5.68;100.00;100554.06;6252727;28;20045;-70
2023/12/20 13:22:01;;;;;;;7.93;1.10;;;;;;;5.64;100.00;100547.28;6252253;28;20045;-71
2023/12/20 13:25:03;;;;;;;0.98;0.68;;;;;;;5.60;100.00;100543.94;6251938;28;20053;-70
2023/12/20 13:28:05;;;;;;;1.15;0.30;;;;;;;5.59;100.00;100548.31;6254402;28;20400;-70
2023/12/20 13:31:08;;;;;;;6.32;1.00;;;;;;;5.72;100.00;100548.72;6276883;28;20050;-71
2023/12/20 13:34:09;;;;;;;3.72;1.55;;;;;;;5.82;100.00;100549.22;6276070;28;20052;-70
2023/12/20 13:37:11;;;;;;;8.80;1.05;;;;;;;5.82;100.00;100534.41;6276663;28;20049;-70
2023/12/20 13:40:13;;;;;;;3.33;0.50;;;;;;;5.75;100.00;100529.47;6278905;28;20365;-70
2023/12/20 13:43:16;;;;;;;4.05;0.57;;;;;;;5.74;100.00;100526.03;6268846;28;20083;-70
2023/12/20 13:46:19;;;;;;;1.75;0.47;;;;;;;5.77;100.00;100525.06;6276116;28;20048;-70
2023/12/20 13:49:21;;;;;;;3.55;1.00;;;;;;;5.73;100.00;100518.28;6276104;28;20073;-70
2023/12/20 13:52:22;;;;;;;8.00;1.00;;;;;;;5.84;100.00;100521.31;6276102;28;20323;-70
2023/12/20 13:55:25;;;;;;;5.00;0.85;;;;;;;5.78;100.00;100513.72;6275764;28;20373;-70
2023/12/20 13:58:26;;;;;;;8.70;1.13;;;;;;;5.82;100.00;100520.53;6276266;28;20063;-70
2023/12/20 14:01:29;;;;;;;3.42;0.68;;;;;;;5.96;100.00;100517.44;6275861;28;20053;-70
2023/12/20 14:04:31;;;;;;;3.63;0.63;;;;;;;5.96;100.00;100531.31;6275569;28;20160;-70